Atlanta, Georgia
Traffic Map
Current Weather Conditions
Atlanta, Georgia
Overcast Moderate Rain
Overcast
69°
Feels Like: 69°
Wind Chill: 69° Ceiling: 11000
Heat Index: 69° Visibility: 8mi
Dew Point: 67° Wind: 10mph
Humidity: 93% Direction: 230° (SW)
Pressure: 30.06in Gusts: 0mph
Raw Report DataKATL 040752Z 23009KT 8SM RA FEW006 SCT090 BKN110 OVC150 21/19 A3006 RMK AO2 TSE17 SLP171 TS MOV NE P0047 T02060194 $
Traffic Incident Summary
Active as of:
Severity:
Category:
InformationThere was an issue retrieving the traffic information for this location. Please try a different location or try again shortly.
Advertisements
Track Severe Weather on mobile